Dartmouth, Canada
Current Conditions -  °F | °C
As of 11:00 PM on Friday 28 Nov 2014 (Local Time) from CYHZ Reporting Station
Few Clouds Few Clouds  
Wind Chill: 18°   Ceiling: Unl
Heat Index: 25°   Visibility: 15mi
Dew Point: 19°   Wind: 6mph
Humidity: 80%   Direction: 340°NNW
Pressure: 29.94"   Gusts: NA
Location:  44.67°N, 63.58°W
Report Text: CYHZ 290300Z 34005KT 15SM FEW035 M04/M07 A2994 RMK SC2 SLP147
Loading
Personal Weather Stations






























Interactive Weather Map New forecast layout! Learn more

10-Day Weather Forecast

Advertisements
Track Severe Weather on mobile